Time;durP1;ratioP1;P1;durP2;ratioP2;P2;SDS_P1;SDS_P2;PMS_P1;PMS_P2;Temp;Humidity;BMP_temperature;BMP_pressure;BME280_temperature;BME280_humidity;BME280_pressure;Samples;Min_cycle;Max_cycle;Signal;HPM_P1;HPM_P2
2021/04/04 00:02:24;;;;;;;23.55;9.82;;;8.50;65.20;;;;;;5083191;22;20151;-68
2021/04/04 00:04:50;;;;;;;24.27;9.13;;;8.40;65.20;;;;;;5083111;22;20060;-68
2021/04/04 00:07:16;;;;;;;21.05;8.73;;;8.40;65.50;;;;;;5084914;22;20056;-66
2021/04/04 00:09:42;;;;;;;25.45;8.38;;;8.40;65.60;;;;;;5082964;22;20098;-67
2021/04/04 00:14:35;;;;;;;23.08;8.88;;;8.30;65.70;;;;;;5084347;22;20076;-67
2021/04/04 00:17:03;;;;;;;26.70;8.75;;;8.40;65.70;;;;;;5083274;22;20044;-67
2021/04/04 00:21:55;;;;;;;22.98;9.15;;;8.30;65.90;;;;;;5084764;22;20048;-67
2021/04/04 00:24:21;;;;;;;16.70;8.55;;;8.30;65.90;;;;;;5083327;22;20059;-67
2021/04/04 00:26:47;;;;;;;25.52;8.70;;;8.20;65.90;;;;;;5083140;22;20421;-67
2021/04/04 00:29:13;;;;;;;20.17;8.55;;;8.20;66.10;;;;;;5082587;22;20164;-67
2021/04/04 00:31:39;;;;;;;25.90;9.45;;;8.10;66.40;;;;;;5084034;22;20045;-68
2021/04/04 00:34:06;;;;;;;18.17;8.82;;;8.20;66.60;;;;;;5082614;22;20127;-68
2021/04/04 00:36:32;;;;;;;23.35;8.18;;;8.10;66.60;;;;;;5082686;22;20056;-67
2021/04/04 00:38:58;;;;;;;20.55;8.63;;;8.10;66.50;;;;;;5082508;22;20522;-67
2021/04/04 00:41:24;;;;;;;23.00;8.73;;;8.10;66.70;;;;;;5082944;22;20075;-68
2021/04/04 00:43:49;;;;;;;23.40;9.13;;;8.10;66.70;;;;;;5082425;22;20080;-67
2021/04/04 00:46:15;;;;;;;22.60;9.38;;;8.00;66.80;;;;;;5083502;22;20174;-67
2021/04/04 00:48:41;;;;;;;25.05;9.00;;;8.00;66.80;;;;;;5082948;22;20059;-67
2021/04/04 00:51:07;;;;;;;27.70;8.90;;;8.00;67.00;;;;;;5082394;22;20147;-67
2021/04/04 00:53:33;;;;;;;21.77;8.57;;;7.90;67.30;;;;;;5082138;22;20076;-67
2021/04/04 00:55:59;;;;;;;24.35;9.27;;;7.80;67.80;;;;;;5081752;22;20056;-67
2021/04/04 00:58:25;;;;;;;25.25;9.27;;;7.70;68.30;;;;;;5082444;22;20052;-67
2021/04/04 01:00:51;;;;;;;27.58;9.50;;;7.70;68.60;;;;;;5083558;22;20062;-67
2021/04/04 01:03:17;;;;;;;26.83;10.30;;;7.60;68.70;;;;;;5082526;22;20083;-67
2021/04/04 01:15:38;;;;;;;20.90;9.15;;;7.40;69.20;;;;;;5083536;22;20055;-66
2021/04/04 01:18:15;;;;;;;22.10;9.05;;;7.40;69.30;;;;;;5082849;22;20083;-66
2021/04/04 01:20:57;;;;;;;27.05;9.52;;;7.40;69.50;;;;;;5082164;22;20053;-66
2021/04/04 01:23:57;;;;;;;23.60;8.25;;;7.30;69.60;;;;;;5082484;22;20083;-66
2021/04/04 01:26:50;;;;;;;24.98;9.38;;;7.30;69.60;;;;;;5082183;22;20512;-65
2021/04/04 01:29:19;;;;;;;20.92;9.02;;;7.30;69.70;;;;;;5082332;22;20049;-64
2021/04/04 01:31:46;;;;;;;21.55;9.00;;;7.20;69.90;;;;;;5081949;22;20045;-65
2021/04/04 01:34:14;;;;;;;26.77;9.75;;;7.20;69.80;;;;;;5082202;22;20056;-65
2021/04/04 01:39:09;;;;;;;31.70;10.15;;;7.20;70.10;;;;;;5082997;22;20056;-66
2021/04/04 01:49:03;;;;;;;25.95;9.57;;;7.20;70.20;;;;;;5083608;22;20095;-69
2021/04/04 01:51:30;;;;;;;30.88;10.10;;;7.20;70.20;;;;;;5081726;22;20056;-66
2021/04/04 01:53:58;;;;;;;29.98;9.77;;;7.20;70.20;;;;;;5081101;22;20144;-67
2021/04/04 01:56:25;;;;;;;27.35;9.23;;;7.20;70.30;;;;;;5081901;22;20535;-66
2021/04/04 01:58:52;;;;;;;22.05;9.30;;;7.20;70.40;;;;;;5081338;22;20053;-68
2021/04/04 02:11:06;;;;;;;22.67;9.65;;;7.00;71.00;;;;;;5082004;22;20044;-69
2021/04/04 02:20:57;;;;;;;26.25;9.93;;;6.80;71.50;;;;;;5081692;22;20166;-69
2021/04/04 02:28:23;;;;;;;27.88;9.48;;;6.80;71.60;;;;;;5082469;22;20132;-68
2021/04/04 02:30:50;;;;;;;28.20;9.52;;;6.80;72.00;;;;;;5080542;22;20057;-68
2021/04/04 02:50:36;;;;;;;28.98;9.63;;;6.60;72.40;;;;;;5082156;22;20041;-68
2021/04/04 02:57:57;;;;;;;22.20;9.48;;;6.50;72.80;;;;;;5101754;22;20048;-68
2021/04/04 03:00:23;;;;;;;21.27;9.10;;;6.50;73.00;;;;;;5080702;22;20084;-68
2021/04/04 03:10:17;;;;;;;25.92;9.27;;;6.40;73.00;;;;;;5081936;22;20048;-69
2021/04/04 03:29:56;;;;;;;27.58;9.27;;;6.30;73.70;;;;;;5083784;22;20087;-69
2021/04/04 03:34:48;;;;;;;26.35;9.48;;;6.30;73.90;;;;;;5086458;22;20086;-70
2021/04/04 03:42:07;;;;;;;25.35;10.13;;;6.20;74.30;;;;;;5105220;22;20408;-69
2021/04/04 03:47:04;;;;;;;23.02;9.45;;;6.20;74.50;;;;;;5105817;22;20512;-69
2021/04/04 03:49:31;;;;;;;24.10;9.18;;;6.10;74.70;;;;;;5084370;22;20083;-69
2021/04/04 03:52:00;;;;;;;28.23;9.75;;;6.00;75.00;;;;;;5103892;22;20050;-68
2021/04/04 04:04:15;;;;;;;26.20;10.43;;;5.90;75.80;;;;;;5085202;22;20532;-67
2021/04/04 04:06:44;;;;;;;31.20;11.13;;;5.90;75.90;;;;;;5103113;22;20063;-67
2021/04/04 04:09:15;;;;;;;33.00;11.13;;;5.90;76.00;;;;;;5083505;22;20052;-66
2021/04/04 04:11:43;;;;;;;26.20;10.15;;;5.90;75.90;;;;;;5102749;22;20059;-65
2021/04/04 04:19:08;;;;;;;26.42;11.07;;;5.90;75.80;;;;;;5085002;22;20059;-65
2021/04/04 04:21:35;;;;;;;27.50;10.88;;;5.90;75.80;;;;;;5103638;22;20059;-65
2021/04/04 04:24:05;;;;;;;27.38;10.60;;;5.90;75.90;;;;;;5083586;22;20052;-65
2021/04/04 04:26:34;;;;;;;27.88;11.00;;;5.90;75.80;;;;;;5101902;22;20056;-65
2021/04/04 04:29:01;;;;;;;27.70;10.80;;;5.90;75.90;;;;;;5083348;22;20048;-65
2021/04/04 04:34:00;;;;;;;29.08;11.20;;;5.90;75.90;;;;;;5085126;22;20143;-65
2021/04/04 04:36:26;;;;;;;33.17;11.43;;;5.90;76.10;;;;;;5101946;22;20056;-65
2021/04/04 04:53:38;;;;;;;31.05;11.60;;;5.80;76.90;;;;;;5084112;22;20056;-65
2021/04/04 04:58:31;;;;;;;34.78;12.20;;;5.70;77.10;;;;;;5083400;22;20054;-65
2021/04/04 05:01:00;;;;;;;32.45;11.60;;;5.70;77.20;;;;;;5101617;22;20048;-65
2021/04/04 05:03:26;;;;;;;25.95;12.30;;;5.70;77.30;;;;;;5081863;22;20064;-65
2021/04/04 05:05:52;;;;;;;27.13;11.85;;;5.70;77.30;;;;;;5102255;22;20109;-65
2021/04/04 05:08:20;;;;;;;31.45;11.90;;;5.80;77.30;;;;;;5082511;22;20477;-65
2021/04/04 05:10:47;;;;;;;30.15;12.88;;;5.70;77.30;;;;;;5101596;22;20056;-65
2021/04/04 05:13:14;;;;;;;30.48;12.05;;;5.70;77.50;;;;;;5081929;22;20060;-65
2021/04/04 05:15:41;;;;;;;27.48;12.23;;;5.70;77.60;;;;;;5101494;22;20088;-65
2021/04/04 05:18:07;;;;;;;34.97;14.05;;;5.70;77.50;;;;;;5081717;22;20063;-65
2021/04/04 05:20:34;;;;;;;33.55;13.23;;;5.60;77.90;;;;;;5101225;22;20059;-65
2021/04/04 05:23:01;;;;;;;31.92;12.77;;;5.60;78.10;;;;;;5083190;22;20133;-65
2021/04/04 05:25:28;;;;;;;31.98;13.00;;;5.60;78.40;;;;;;5102589;22;20101;-65
2021/04/04 05:27:57;;;;;;;32.63;12.65;;;5.60;78.30;;;;;;5081357;22;20064;-65
2021/04/04 05:30:25;;;;;;;31.23;13.05;;;5.60;78.50;;;;;;5101110;22;20101;-65
2021/04/04 05:32:51;;;;;;;31.65;13.25;;;5.60;78.50;;;;;;5081408;22;20147;-65
2021/04/04 05:53:11;;;;;;;34.90;14.45;;;5.50;79.30;;;;;;5082534;22;20064;-65
2021/04/04 05:56:05;;;;;;;28.95;13.55;;;5.50;79.40;;;;;;5100611;22;20048;-65
2021/04/04 05:58:35;;;;;;;34.13;14.05;;;5.50;79.40;;;;;;5081453;22;20057;-65
2021/04/04 06:01:23;;;;;;;37.20;14.30;;;5.50;79.40;;;;;;5100715;22;20455;-65
2021/04/04 06:04:26;;;;;;;31.20;14.38;;;5.50;79.50;;;;;;5081283;22;20059;-65
2021/04/04 06:10:01;;;;;;;31.20;13.18;;;5.50;79.50;;;;;;5101815;22;20404;-64
2021/04/04 06:13:02;;;;;;;36.45;15.90;;;5.50;79.90;;;;;;5081653;22;20063;-64
2021/04/04 06:15:56;;;;;;;36.20;15.45;;;5.50;79.80;;;;;;5097195;22;20142;-64
2021/04/04 06:18:58;;;;;;;39.40;16.55;;;5.50;80.00;;;;;;5082815;22;20145;-64
2021/04/04 06:21:38;;;;;;;34.75;14.85;;;5.50;80.60;;;;;;5100722;22;20044;-64
2021/04/04 06:24:21;;;;;;;33.95;14.98;;;5.50;79.80;;;;;;5081115;22;20143;-65
2021/04/04 06:27:01;;;;;;;35.05;14.38;;;5.50;79.80;;;;;;5100732;23;20052;-64
2021/04/04 06:29:45;;;;;;;29.92;13.65;;;5.50;79.80;;;;;;5081235;22;20048;-64
2021/04/04 06:37:34;;;;;;;31.90;15.02;;;5.80;79.00;;;;;;5081930;22;20064;-65
2021/04/04 06:40:05;;;;;;;33.22;13.45;;;5.90;78.60;;;;;;5100260;22;20044;-66
2021/04/04 06:42:56;;;;;;;34.10;14.55;;;5.90;78.60;;;;;;5080194;22;20147;-68
2021/04/04 06:45:32;;;;;;;34.20;15.05;;;5.90;78.50;;;;;;5099731;23;20056;-67
2021/04/04 06:48:22;;;;;;;32.15;14.50;;;5.90;78.30;;;;;;5081345;22;20592;-68
2021/04/04 07:01:49;;;;;;;37.50;14.48;;;6.10;78.10;;;;;;5063322;22;20049;-68
2021/04/04 07:04:45;;;;;;;33.13;14.93;;;6.10;78.20;;;;;;5063236;22;20045;-66
2021/04/04 07:07:56;;;;;;;35.05;14.10;;;6.20;78.00;;;;;;5086254;22;20052;-65
2021/04/04 07:10:40;;;;;;;37.00;14.65;;;6.30;77.60;;;;;;5103781;22;20056;-65
2021/04/04 07:13:38;;;;;;;37.30;14.80;;;6.50;76.90;;;;;;5084902;22;20067;-65
2021/04/04 07:16:41;;;;;;;30.40;13.55;;;6.50;76.70;;;;;;5075888;28;20098;-65
2021/04/04 07:19:26;;;;;;;37.63;14.63;;;6.70;76.20;;;;;;5104044;22;20048;-72
2021/04/04 07:22:10;;;;;;;;;;;6.70;76.30;;;;;;5084792;22;20523;-64
2021/04/04 07:29:50;;;;;;;33.28;14.38;;;6.90;75.80;;;;;;5085378;22;20056;-62
2021/04/04 07:32:21;;;;;;;30.15;13.88;;;7.00;75.90;;;;;;5103813;22;20052;-62
2021/04/04 07:35:16;;;;;;;31.00;14.02;;;7.20;75.10;;;;;;5084258;22;20443;-62
2021/04/04 07:37:49;;;;;;;;;;;7.30;74.50;;;;;;5103485;22;20051;-64
2021/04/04 07:40:28;;;;;;;37.10;14.32;;;7.40;74.30;;;;;;5084047;22;20361;-62
2021/04/04 07:43:04;;;;;;;32.53;14.75;;;7.40;74.10;;;;;;5103529;22;20151;-62
2021/04/04 07:45:35;;;;;;;35.80;13.40;;;7.50;74.00;;;;;;5083902;22;20048;-62
2021/04/04 07:48:27;;;;;;;30.92;14.73;;;7.60;73.50;;;;;;5105045;22;20059;-63
2021/04/04 07:51:06;;;;;;;32.63;13.60;;;7.60;73.00;;;;;;5083736;22;20488;-61
2021/04/04 07:54:06;;;;;;;29.23;13.43;;;7.70;73.10;;;;;;5103527;22;20052;-63
2021/04/04 07:56:38;;;;;;;37.20;14.18;;;7.70;73.00;;;;;;5083629;22;20052;-62
2021/04/04 08:01:41;;;;;;;28.83;13.32;;;7.90;72.50;;;;;;5101812;22;20138;-63
2021/04/04 08:04:17;;;;;;;30.20;12.93;;;8.00;71.60;;;;;;5083660;22;20056;-63
2021/04/04 08:06:52;;;;;;;33.05;13.88;;;8.10;71.60;;;;;;5103195;22;20109;-63
2021/04/04 08:09:31;;;;;;;34.58;13.45;;;8.20;71.00;;;;;;5083574;22;20045;-64
2021/04/04 08:12:09;;;;;;;31.90;12.38;;;8.30;70.40;;;;;;5105058;22;20561;-64
2021/04/04 08:14:51;;;;;;;29.67;12.70;;;8.50;69.30;;;;;;5083498;22;20106;-63
2021/04/04 08:30:20;;;;;;;27.55;11.77;;;9.30;66.90;;;;;;5103996;22;20070;-66
2021/04/04 08:33:03;;;;;;;27.95;12.77;;;9.30;66.40;;;;;;5083278;22;20064;-65
2021/04/04 08:35:38;;;;;;;25.35;12.55;;;9.50;65.90;;;;;;5102302;22;20610;-65
2021/04/04 08:43:10;;;;;;;29.08;11.55;;;9.90;64.60;;;;;;5084409;22;20077;-65
2021/04/04 08:45:46;;;;;;;31.25;11.65;;;9.90;64.70;;;;;;5104241;22;20087;-65
2021/04/04 08:48:15;;;;;;;28.50;11.85;;;10.00;63.80;;;;;;5083367;22;20057;-65
2021/04/04 08:50:44;;;;;;;26.80;11.40;;;10.10;63.30;;;;;;5102367;22;20063;-65
2021/04/04 08:53:19;;;;;;;26.25;11.85;;;10.10;62.50;;;;;;5083276;22;20143;-62
2021/04/04 08:55:48;;;;;;;;;;;10.30;62.00;;;;;;5102026;22;20052;-64
2021/04/04 09:03:21;;;;;;;26.25;11.07;;;10.70;59.50;;;;;;5103531;22;20408;-64
2021/04/04 09:05:48;;;;;;;23.30;9.63;;;10.70;58.90;;;;;;5082286;22;20057;-65
2021/04/04 09:08:15;;;;;;;22.40;8.75;;;10.90;57.70;;;;;;5101041;23;20145;-66
2021/04/04 09:10:45;;;;;;;21.20;8.98;;;11.00;57.90;;;;;;5081644;22;20053;-67
2021/04/04 09:15:47;;;;;;;21.35;11.20;;;11.30;56.70;;;;;;5064061;22;20057;-80
2021/04/04 09:20:40;;;;;;;26.38;9.48;;;11.60;55.30;;;;;;5082385;23;20060;-65
2021/04/04 09:47:52;;;;;;;19.15;7.57;;;12.70;52.70;;;;;;5063090;22;20073;-64
2021/04/04 09:55:18;;;;;;;21.33;7.85;;;13.10;50.70;;;;;;5102173;22;20530;-64
2021/04/04 09:57:50;;;;;;;18.25;7.63;;;13.10;50.60;;;;;;5098299;22;20067;-64
2021/04/04 10:00:18;;;;;;;18.17;7.20;;;13.40;50.30;;;;;;5083872;23;20052;-65
2021/04/04 10:02:46;;;;;;;24.30;6.70;;;13.40;49.80;;;;;;5104174;22;20048;-65
2021/04/04 10:05:11;;;;;;;18.65;7.18;;;13.40;49.00;;;;;;5102745;22;20130;-64
2021/04/04 10:07:37;;;;;;;25.40;8.82;;;13.40;48.40;;;;;;5081367;23;20139;-64
2021/04/04 10:10:05;;;;;;;37.83;12.60;;;13.40;48.00;;;;;;5080642;22;20135;-64
2021/04/04 10:24:51;;;;;;;16.00;6.03;;;13.90;45.70;;;;;;5063971;22;20332;-66
2021/04/04 10:27:27;;;;;;;14.65;5.45;;;14.00;45.70;;;;;;5083015;23;20574;-68
2021/04/04 10:35:09;;;;;;;11.43;5.07;;;14.40;44.70;;;;;;5101693;22;20060;-66
2021/04/04 10:37:35;;;;;;;10.13;4.50;;;14.60;43.80;;;;;;5101132;22;20079;-68
2021/04/04 10:40:04;;;;;;;18.55;7.28;;;14.70;42.60;;;;;;5100010;22;20048;-66
2021/04/04 10:50:09;;;;;;;14.27;6.38;;;14.80;41.20;;;;;;5153302;22;20562;-66
2021/04/04 10:57:31;;;;;;;12.85;4.32;;;15.20;40.90;;;;;;5101966;22;20056;-65
2021/04/04 10:59:56;;;;;;;11.45;4.13;;;15.30;40.30;;;;;;5101414;22;20062;-66
2021/04/04 11:02:26;;;;;;;14.68;5.03;;;15.30;39.90;;;;;;5101608;22;20048;-65
2021/04/04 11:04:52;;;;;;;15.40;4.70;;;15.30;40.40;;;;;;5100118;22;20052;-66
2021/04/04 11:07:21;;;;;;;11.98;4.65;;;15.30;41.20;;;;;;5100206;22;20086;-79
2021/04/04 11:09:58;;;;;;;;;;;;;;;;;;;;;
2021/04/04 11:19:34;;;;;;;10.10;4.22;;;15.70;40.10;;;;;;5101492;22;20064;-71
2021/04/04 11:22:02;;;;;;;13.80;5.18;;;15.80;40.00;;;;;;5096882;23;20055;-72
2021/04/04 11:24:28;;;;;;;15.93;4.88;;;15.80;40.00;;;;;;5099500;22;20090;-73
2021/04/04 11:29:24;;;;;;;11.45;4.10;;;15.60;41.10;;;;;;5101518;22;20091;-75
2021/04/04 11:31:55;;;;;;;25.83;8.18;;;15.70;40.10;;;;;;5087825;28;20101;-72
2021/04/04 11:39:26;;;;;;;10.77;3.80;;;16.00;39.60;;;;;;5120036;22;20051;-72
2021/04/04 11:41:53;;;;;;;24.15;10.27;;;16.10;39.30;;;;;;5094937;23;20456;-70
2021/04/04 11:47:02;;;;;;;13.35;4.03;;;16.10;39.30;;;;;;5117330;22;20487;-70
2021/04/04 11:49:28;;;;;;;10.77;3.85;;;16.20;39.30;;;;;;5091274;23;20060;-71
2021/04/04 11:51:57;;;;;;;9.27;3.42;;;16.30;38.80;;;;;;5102625;22;20059;-72
2021/04/04 11:54:48;;;;;;;8.68;3.88;;;16.40;38.80;;;;;;5103558;22;20056;-72
2021/04/04 11:57:20;;;;;;;12.20;3.85;;;16.40;38.40;;;;;;5103057;22;20565;-71
2021/04/04 11:59:49;;;;;;;36.72;16.13;;;16.40;37.50;;;;;;5103670;22;20150;-73
2021/04/04 12:02:17;;;;;;;17.48;6.03;;;16.60;37.30;;;;;;5103221;22;20052;-72
2021/04/04 12:04:46;;;;;;;17.48;3.90;;;16.60;37.60;;;;;;5097143;22;20052;-72
2021/04/04 12:14:31;;;;;;;12.15;3.55;;;17.00;36.60;;;;;;5104903;22;20055;-69
2021/04/04 12:17:07;;;;;;;;;;;;;;;;;;;;;
2021/04/04 12:24:21;;;;;;;10.57;3.60;;;16.90;37.00;;;;;;5123261;22;20048;-72
2021/04/04 12:29:13;;;;;;;10.43;3.70;;;17.10;36.90;;;;;;5082985;22;20133;-72
2021/04/04 12:36:32;;;;;;;10.65;3.92;;;17.30;36.00;;;;;;5104381;22;20044;-72
2021/04/04 12:39:00;;;;;;;10.65;3.42;;;17.30;36.10;;;;;;5098356;22;20535;-72
2021/04/04 12:41:24;;;;;;;8.40;3.47;;;17.20;36.70;;;;;;5123532;22;20077;-72
2021/04/04 12:43:50;;;;;;;9.27;3.58;;;17.30;35.00;;;;;;5097056;22;20547;-72
2021/04/04 12:48:41;;;;;;;12.73;3.92;;;17.30;35.60;;;;;;5117112;22;20415;-73
2021/04/04 12:51:07;;;;;;;11.30;4.07;;;17.40;35.60;;;;;;5098380;28;20440;-72
2021/04/04 12:56:01;;;;;;;11.77;3.38;;;17.20;36.50;;;;;;5124044;22;20431;-69
2021/04/04 13:01:03;;;;;;;6.82;2.80;;;17.50;35.10;;;;;;5124822;22;20054;-71
2021/04/04 13:13:39;;;;;;;10.82;3.72;;;17.70;36.20;;;;;;5123847;22;20044;-71
2021/04/04 13:16:07;;;;;;;10.32;3.53;;;18.00;36.10;;;;;;5102109;22;20113;-71
2021/04/04 13:18:35;;;;;;;11.88;3.17;;;18.00;33.90;;;;;;5094594;22;20048;-72
2021/04/04 13:31:11;;;;;;;10.18;3.20;;;18.10;36.00;;;;;;5123370;22;20051;-69
2021/04/04 13:33:38;;;;;;;14.05;3.58;;;17.90;35.20;;;;;;5101874;22;20080;-68
2021/04/04 13:48:35;;;;;;;10.23;3.30;;;18.20;35.70;;;;;;5123153;22;20035;-69
2021/04/04 13:51:01;;;;;;;8.90;3.42;;;18.10;34.60;;;;;;5100665;22;20147;-71
2021/04/04 13:53:36;;;;;;;11.52;3.55;;;18.20;35.00;;;;;;5099918;22;20056;-70
2021/04/04 13:56:15;;;;;;;9.98;4.00;;;18.20;35.40;;;;;;5099848;22;20071;-69
2021/04/04 14:08:59;;;;;;;13.07;3.10;;;17.80;35.00;;;;;;5122402;22;20128;-70
2021/04/04 14:11:25;;;;;;;8.75;2.85;;;17.90;34.70;;;;;;5123114;22;20438;-70
2021/04/04 14:13:51;;;;;;;10.52;3.33;;;18.20;34.90;;;;;;5122519;22;20090;-70
2021/04/04 14:16:17;;;;;;;11.20;2.92;;;18.30;35.50;;;;;;5100934;22;20552;-70
2021/04/04 14:18:46;;;;;;;11.82;3.45;;;18.40;34.70;;;;;;5093986;22;20105;-70
2021/04/04 14:21:12;;;;;;;9.48;3.20;;;18.30;34.70;;;;;;5104624;22;20052;-70
2021/04/04 14:23:38;;;;;;;9.63;3.35;;;18.10;34.30;;;;;;5094025;22;20508;-70
2021/04/04 14:26:05;;;;;;;8.43;2.83;;;18.20;34.60;;;;;;5102212;22;20056;-70
2021/04/04 14:28:32;;;;;;;10.15;2.97;;;18.00;34.60;;;;;;5092962;23;20052;-69
2021/04/04 14:30:59;;;;;;;11.93;3.03;;;18.00;34.90;;;;;;5100481;22;20051;-70
2021/04/04 14:33:24;;;;;;;9.70;2.88;;;18.00;35.10;;;;;;5103306;22;20059;-69
2021/04/04 14:35:51;;;;;;;9.80;3.42;;;18.30;34.70;;;;;;5100395;23;20519;-70
2021/04/04 14:38:17;;;;;;;7.80;3.22;;;18.20;33.90;;;;;;5101646;22;20048;-70
2021/04/04 14:40:45;;;;;;;8.50;2.85;;;18.30;34.40;;;;;;5093750;22;20047;-70
2021/04/04 14:43:22;;;;;;;7.90;3.00;;;18.50;33.80;;;;;;5118992;22;20051;-70
2021/04/04 14:45:35;;;;;;;8.70;2.88;;;18.40;32.90;;;;;;5100981;22;20054;-70
2021/04/04 14:48:01;;;;;;;10.07;3.22;;;18.20;33.00;;;;;;5096736;22;20142;-70
2021/04/04 14:50:27;;;;;;;11.38;3.25;;;18.20;33.90;;;;;;5100191;22;20080;-70
2021/04/04 14:53:11;;;;;;;9.85;2.92;;;18.20;34.30;;;;;;5100346;22;20059;-70
2021/04/04 14:55:19;;;;;;;10.98;3.33;;;18.20;35.00;;;;;;5121735;22;20055;-70
2021/04/04 14:57:45;;;;;;;13.43;2.70;;;18.10;35.00;;;;;;5103502;22;20062;-70
2021/04/04 15:00:11;;;;;;;7.70;2.50;;;18.20;34.90;;;;;;5102117;22;20500;-70
2021/04/04 15:02:37;;;;;;;12.00;3.30;;;18.40;34.80;;;;;;5092774;22;20051;-69
2021/04/04 15:05:03;;;;;;;9.52;2.72;;;18.60;35.00;;;;;;5092629;28;20036;-70
2021/04/04 15:07:29;;;;;;;11.85;3.65;;;18.50;35.80;;;;;;5034570;22;20057;-70
2021/04/04 15:09:55;;;;;;;10.85;3.38;;;18.20;36.40;;;;;;5099690;22;20523;-70
2021/04/04 15:12:21;;;;;;;11.73;3.17;;;18.20;36.60;;;;;;5100604;22;20059;-70
2021/04/04 15:14:47;;;;;;;7.55;2.90;;;18.30;36.40;;;;;;5116097;22;20097;-70
2021/04/04 15:17:13;;;;;;;10.88;3.40;;;18.30;36.50;;;;;;5097927;23;20470;-70
2021/04/04 15:19:38;;;;;;;10.45;3.25;;;18.40;36.10;;;;;;5093345;23;20051;-70
2021/04/04 15:22:05;;;;;;;8.35;3.38;;;18.30;36.30;;;;;;5100316;22;20523;-70
2021/04/04 15:26:57;;;;;;;11.55;3.53;;;18.30;35.90;;;;;;5102314;22;20463;-70
2021/04/04 15:29:23;;;;;;;12.95;3.40;;;18.40;36.30;;;;;;5125085;22;20051;-70
2021/04/04 15:34:18;;;;;;;11.50;3.65;;;18.30;36.90;;;;;;5105968;22;20046;-70
2021/04/04 15:36:44;;;;;;;8.68;3.50;;;18.40;37.20;;;;;;5097302;22;20142;-70
2021/04/04 15:44:01;;;;;;;11.35;3.15;;;18.30;37.40;;;;;;5121303;22;20087;-73
2021/04/04 15:46:27;;;;;;;10.20;3.00;;;18.20;37.70;;;;;;5099486;28;20160;-73
2021/04/04 15:48:53;;;;;;;9.15;3.00;;;18.10;37.90;;;;;;5099446;22;20051;-78
2021/04/04 15:51:19;;;;;;;9.50;2.72;;;18.10;37.40;;;;;;5103575;22;20460;-72
2021/04/04 15:53:45;;;;;;;12.57;3.33;;;18.10;37.60;;;;;;5119558;22;20063;-71
2021/04/04 15:56:11;;;;;;;7.80;2.70;;;18.00;37.60;;;;;;5100495;22;20059;-71
2021/04/04 15:58:37;;;;;;;12.93;4.22;;;18.00;37.60;;;;;;5095720;22;20196;-69
2021/04/04 16:01:03;;;;;;;26.80;10.55;;;18.20;36.90;;;;;;5102587;22;20059;-69
2021/04/04 16:03:29;;;;;;;10.25;3.20;;;18.10;35.90;;;;;;5082922;22;20547;-73
2021/04/04 16:05:55;;;;;;;11.93;3.03;;;18.10;36.30;;;;;;5084161;22;20064;-70
2021/04/04 16:08:22;;;;;;;8.60;3.28;;;18.20;37.40;;;;;;5085351;22;20052;-68
2021/04/04 16:10:50;;;;;;;9.90;3.30;;;18.00;37.80;;;;;;5102286;22;20576;-75
2021/04/04 16:13:14;;;;;;;10.90;2.95;;;18.00;38.30;;;;;;5125497;22;20085;-72
2021/04/04 16:15:41;;;;;;;9.57;2.70;;;18.00;38.30;;;;;;5102922;22;20052;-70
2021/04/04 16:18:06;;;;;;;10.43;3.42;;;18.00;38.40;;;;;;5124898;22;20063;-69
2021/04/04 16:20:32;;;;;;;9.30;3.35;;;18.00;38.50;;;;;;5103017;22;20051;-68
2021/04/04 16:23:02;;;;;;;9.93;3.45;;;18.10;38.50;;;;;;5102734;22;20067;-69
2021/04/04 16:25:27;;;;;;;10.27;3.65;;;18.10;38.40;;;;;;5123964;22;20055;-72
2021/04/04 16:28:02;;;;;;;11.27;3.33;;;17.80;38.90;;;;;;5103014;22;20067;-69
2021/04/04 16:30:29;;;;;;;13.02;3.67;;;17.80;39.30;;;;;;5102244;22;20143;-70
2021/04/04 16:32:57;;;;;;;15.38;3.40;;;17.70;39.40;;;;;;5102610;22;20121;-70
2021/04/04 16:35:24;;;;;;;13.35;3.78;;;17.50;39.60;;;;;;5125053;22;20054;-69
2021/04/04 16:37:55;;;;;;;14.23;3.30;;;17.50;40.30;;;;;;5098199;28;20039;-70
2021/04/04 16:42:50;;;;;;;13.25;3.38;;;17.40;40.20;;;;;;5124111;22;20058;-70
2021/04/04 16:45:17;;;;;;;10.27;3.28;;;17.40;40.20;;;;;;5102513;22;20056;-71
2021/04/04 16:47:43;;;;;;;11.43;3.70;;;17.40;40.20;;;;;;5124444;22;20134;-70
2021/04/04 16:52:35;;;;;;;12.15;3.97;;;17.30;40.60;;;;;;5123684;22;20051;-70
2021/04/04 16:55:02;;;;;;;14.38;3.38;;;17.20;40.80;;;;;;5102017;22;20059;-70
2021/04/04 16:57:28;;;;;;;12.68;3.95;;;17.20;40.90;;;;;;5101601;22;20059;-70
2021/04/04 16:59:54;;;;;;;15.23;4.40;;;17.20;40.30;;;;;;5124012;22;20060;-71
2021/04/04 17:02:20;;;;;;;13.25;3.42;;;17.10;40.70;;;;;;5092239;28;20028;-72
2021/04/04 17:07:13;;;;;;;10.23;3.17;;;17.10;41.00;;;;;;5064210;22;20079;-72
2021/04/04 17:09:39;;;;;;;10.32;3.42;;;17.10;41.00;;;;;;5125195;22;20105;-74
2021/04/04 17:12:06;;;;;;;9.20;3.33;;;17.20;40.80;;;;;;5097758;28;20134;-72
2021/04/04 17:14:33;;;;;;;8.38;3.00;;;17.10;40.80;;;;;;5061908;23;20053;-72
2021/04/04 17:16:58;;;;;;;13.77;3.35;;;17.00;40.90;;;;;;5053601;28;20102;-72
2021/04/04 17:19:24;;;;;;;14.52;3.95;;;16.90;41.10;;;;;;5062099;23;20505;-73
2021/04/04 17:21:51;;;;;;;12.48;3.95;;;16.90;41.40;;;;;;5064195;22;20106;-72
2021/04/04 17:24:16;;;;;;;15.68;4.13;;;16.80;41.30;;;;;;5102474;22;20535;-72
2021/04/04 17:26:43;;;;;;;10.20;3.13;;;16.80;41.30;;;;;;5101511;22;20053;-72
2021/04/04 17:29:10;;;;;;;12.48;2.95;;;16.80;41.50;;;;;;5094197;28;20040;-72
2021/04/04 17:31:35;;;;;;;12.50;3.40;;;16.80;41.70;;;;;;5123158;22;20043;-72
2021/04/04 17:34:01;;;;;;;9.68;3.55;;;16.80;41.80;;;;;;5097635;28;20214;-72
2021/04/04 17:36:27;;;;;;;14.48;3.88;;;16.60;42.00;;;;;;5097409;28;20084;-72
2021/04/04 17:41:19;;;;;;;13.98;3.65;;;16.50;42.50;;;;;;5123168;22;20454;-71
2021/04/04 17:43:49;;;;;;;11.55;3.30;;;16.40;42.70;;;;;;5115249;22;20105;-73
2021/04/04 17:48:41;;;;;;;11.57;3.58;;;16.30;42.80;;;;;;5080620;22;20057;-74
2021/04/04 17:51:07;;;;;;;14.02;4.28;;;16.20;42.80;;;;;;5100100;22;20076;-72
2021/04/04 17:56:00;;;;;;;14.85;3.20;;;16.10;43.30;;;;;;5122241;22;20086;-72
2021/04/04 18:00:51;;;;;;;8.77;3.50;;;15.90;43.80;;;;;;5122667;22;20592;-73
2021/04/04 18:03:20;;;;;;;12.93;3.47;;;15.90;44.20;;;;;;5100461;22;20465;-72
2021/04/04 18:13:03;;;;;;;12.50;3.25;;;15.60;45.30;;;;;;5122517;22;20059;-72
2021/04/04 18:15:29;;;;;;;12.35;3.35;;;15.50;45.60;;;;;;5100546;22;20048;-72
2021/04/04 18:17:55;;;;;;;12.60;3.75;;;15.40;45.80;;;;;;5099627;22;20071;-71
2021/04/04 18:20:21;;;;;;;12.88;3.92;;;15.40;46.10;;;;;;5083461;23;20056;-73
2021/04/04 18:22:47;;;;;;;9.48;3.22;;;15.30;46.20;;;;;;5076434;28;20032;-72
2021/04/04 18:25:13;;;;;;;13.63;3.10;;;15.20;46.30;;;;;;5075720;28;20065;-73
2021/04/04 18:27:39;;;;;;;12.50;3.42;;;15.10;46.60;;;;;;5099734;22;20052;-72
2021/04/04 18:30:07;;;;;;;9.50;3.40;;;15.10;46.80;;;;;;5100244;22;20048;-72
2021/04/04 18:32:34;;;;;;;15.25;4.00;;;15.00;46.90;;;;;;5099884;22;20056;-72
2021/04/04 18:35:00;;;;;;;13.88;3.65;;;14.90;46.90;;;;;;5100178;22;20055;-72
2021/04/04 18:37:26;;;;;;;11.50;3.85;;;14.80;47.30;;;;;;5099786;22;20059;-72
2021/04/04 18:39:52;;;;;;;11.70;3.88;;;14.70;47.60;;;;;;5099760;22;20052;-72
2021/04/04 18:44:44;;;;;;;10.18;3.17;;;14.60;47.80;;;;;;5121787;22;20052;-72
2021/04/04 18:47:09;;;;;;;11.88;4.18;;;14.50;48.00;;;;;;5099332;22;20086;-72
2021/04/04 18:49:35;;;;;;;11.88;3.20;;;14.50;48.20;;;;;;5091734;28;20043;-73
2021/04/04 18:52:02;;;;;;;14.93;4.30;;;14.40;48.20;;;;;;5099649;22;20044;-72
2021/04/04 18:54:28;;;;;;;12.63;3.97;;;14.40;48.50;;;;;;5091671;28;20063;-72
2021/04/04 18:56:54;;;;;;;14.30;4.22;;;14.30;48.30;;;;;;5099360;22;20056;-72
2021/04/04 18:59:20;;;;;;;11.48;3.72;;;14.30;48.50;;;;;;5099884;22;20432;-72
2021/04/04 19:01:46;;;;;;;16.45;4.35;;;14.20;48.40;;;;;;5103170;22;20059;-73
2021/04/04 19:04:12;;;;;;;10.98;4.20;;;14.20;48.20;;;;;;5096566;28;20048;-73
2021/04/04 19:06:38;;;;;;;11.32;4.10;;;14.10;48.20;;;;;;5096671;28;20506;-72
2021/04/04 19:09:05;;;;;;;14.05;4.28;;;14.10;48.50;;;;;;5104036;22;20063;-72
2021/04/04 19:11:32;;;;;;;12.13;3.65;;;14.00;48.90;;;;;;5096879;28;20043;-73
2021/04/04 19:13:59;;;;;;;15.50;5.25;;;13.90;49.40;;;;;;5127416;22;20109;-74
2021/04/04 19:16:25;;;;;;;14.80;4.15;;;13.80;50.00;;;;;;5127549;22;20052;-73
2021/04/04 19:18:52;;;;;;;12.00;4.20;;;13.70;50.40;;;;;;5125669;22;20055;-73
2021/04/04 19:21:19;;;;;;;13.95;4.30;;;13.70;50.80;;;;;;5103757;22;20127;-75
2021/04/04 19:23:45;;;;;;;11.73;4.97;;;13.60;51.20;;;;;;5124356;22;20062;-73
2021/04/04 19:28:37;;;;;;;14.77;4.70;;;13.50;52.10;;;;;;5125753;22;20134;-74
2021/04/04 19:31:03;;;;;;;12.45;4.65;;;13.50;52.50;;;;;;5104068;22;20079;-74
2021/04/04 19:33:29;;;;;;;11.75;4.63;;;13.40;52.50;;;;;;5104438;22;20052;-74